sensor_id;sensor_type;location;lat;lon;timestamp;pressure;altitude;pressure_sealevel;temperature;humidity
66762;BME280;53672;48.176;16.338;2023-02-15T00:02:49;100833.38;;;3.08;76.74
66762;BME280;53672;48.176;16.338;2023-02-15T00:07:50;100836.47;;;3.11;76.16
66762;BME280;53672;48.176;16.338;2023-02-15T00:12:52;100827.00;;;3.08;76.88
66762;BME280;53672;48.176;16.338;2023-02-15T00:17:52;100820.00;;;3.01;77.18
66762;BME280;53672;48.176;16.338;2023-02-15T00:22:53;100826.31;;;3.00;77.13
66762;BME280;53672;48.176;16.338;2023-02-15T00:27:55;100824.59;;;2.92;77.12
66762;BME280;53672;48.176;16.338;2023-02-15T00:32:55;100818.00;;;2.88;77.40
66762;BME280;53672;48.176;16.338;2023-02-15T00:37:56;100823.06;;;2.83;77.47
66762;BME280;53672;48.176;16.338;2023-02-15T00:42:58;100812.44;;;2.83;77.26
66762;BME280;53672;48.176;16.338;2023-02-15T00:47:58;100821.81;;;2.79;77.38
66762;BME280;53672;48.176;16.338;2023-02-15T00:52:59;100817.53;;;2.85;78.22
66762;BME280;53672;48.176;16.338;2023-02-15T00:58:00;100812.53;;;2.75;77.72
66762;BME280;53672;48.176;16.338;2023-02-15T01:03:01;100809.25;;;2.73;77.84
66762;BME280;53672;48.176;16.338;2023-02-15T01:08:02;100802.91;;;2.74;77.69
66762;BME280;53672;48.176;16.338;2023-02-15T01:13:04;100794.09;;;2.74;77.76
66762;BME280;53672;48.176;16.338;2023-02-15T01:18:05;100793.91;;;2.75;76.98
66762;BME280;53672;48.176;16.338;2023-02-15T01:23:06;100778.94;;;2.74;77.27
66762;BME280;53672;48.176;16.338;2023-02-15T01:28:09;100779.31;;;2.71;77.86
66762;BME280;53672;48.176;16.338;2023-02-15T01:33:10;100767.66;;;2.72;78.22
66762;BME280;53672;48.176;16.338;2023-02-15T01:38:11;100765.00;;;2.72;78.06
66762;BME280;53672;48.176;16.338;2023-02-15T01:43:12;100763.09;;;2.66;77.70
66762;BME280;53672;48.176;16.338;2023-02-15T01:48:19;100770.19;;;2.59;78.09
66762;BME280;53672;48.176;16.338;2023-02-15T01:53:23;100764.88;;;2.59;78.36
66762;BME280;53672;48.176;16.338;2023-02-15T01:58:27;100758.53;;;2.60;78.08
66762;BME280;53672;48.176;16.338;2023-02-15T02:03:38;100745.34;;;2.52;77.63
66762;BME280;53672;48.176;16.338;2023-02-15T02:08:42;100741.69;;;2.53;77.94
66762;BME280;53672;48.176;16.338;2023-02-15T02:13:44;100748.63;;;2.54;78.65
66762;BME280;53672;48.176;16.338;2023-02-15T02:18:51;100738.63;;;2.56;78.35
66762;BME280;53672;48.176;16.338;2023-02-15T02:30:23;100731.44;;;2.35;78.56
66762;BME280;53672;48.176;16.338;2023-02-15T02:35:34;100723.63;;;2.34;78.89
66762;BME280;53672;48.176;16.338;2023-02-15T02:40:48;100718.69;;;2.31;78.89
66762;BME280;53672;48.176;16.338;2023-02-15T02:45:53;100720.81;;;2.35;79.14
66762;BME280;53672;48.176;16.338;2023-02-15T02:50:58;100712.38;;;2.32;79.23
66762;BME280;53672;48.176;16.338;2023-02-15T02:56:03;100715.41;;;2.29;79.31
66762;BME280;53672;48.176;16.338;2023-02-15T03:01:09;100716.13;;;2.23;79.65
66762;BME280;53672;48.176;16.338;2023-02-15T03:06:15;100708.44;;;2.28;79.57
66762;BME280;53672;48.176;16.338;2023-02-15T03:11:17;100706.16;;;2.25;79.86
66762;BME280;53672;48.176;16.338;2023-02-15T03:16:18;100709.44;;;2.27;80.16
66762;BME280;53672;48.176;16.338;2023-02-15T03:21:25;100702.13;;;2.29;80.08
66762;BME280;53672;48.176;16.338;2023-02-15T03:26:28;100707.16;;;2.24;79.88
66762;BME280;53672;48.176;16.338;2023-02-15T03:31:32;100703.19;;;2.34;79.50
66762;BME280;53672;48.176;16.338;2023-02-15T03:36:39;100700.72;;;2.33;79.69
66762;BME280;53672;48.176;16.338;2023-02-15T03:41:48;100703.13;;;2.28;80.15
66762;BME280;53672;48.176;16.338;2023-02-15T03:46:53;100704.19;;;2.33;80.06
66762;BME280;53672;48.176;16.338;2023-02-15T03:51:58;100708.44;;;2.28;80.07
66762;BME280;53672;48.176;16.338;2023-02-15T03:57:01;100693.09;;;2.30;80.01
66762;BME280;53672;48.176;16.338;2023-02-15T04:02:12;100703.28;;;2.26;80.14
66762;BME280;53672;48.176;16.338;2023-02-15T04:07:17;100700.19;;;2.23;79.94
66762;BME280;53672;48.176;16.338;2023-02-15T04:12:17;100707.91;;;2.18;79.79
66762;BME280;53672;48.176;16.338;2023-02-15T04:17:18;100707.09;;;2.02;80.16
66762;BME280;53672;48.176;16.338;2023-02-15T04:22:20;100702.81;;;2.01;80.45
66762;BME280;53672;48.176;16.338;2023-02-15T04:27:21;100698.66;;;2.14;80.34
66762;BME280;53672;48.176;16.338;2023-02-15T04:32:21;100695.00;;;2.15;80.33
66762;BME280;53672;48.176;16.338;2023-02-15T04:37:23;100691.59;;;2.21;79.98
66762;BME280;53672;48.176;16.338;2023-02-15T04:42:23;100693.84;;;2.24;79.65
66762;BME280;53672;48.176;16.338;2023-02-15T04:47:24;100698.56;;;2.22;80.28
66762;BME280;53672;48.176;16.338;2023-02-15T04:52:26;100698.56;;;2.22;80.22
66762;BME280;53672;48.176;16.338;2023-02-15T04:57:26;100695.69;;;2.02;81.04
66762;BME280;53672;48.176;16.338;2023-02-15T05:02:27;100695.09;;;2.07;80.85
66762;BME280;53672;48.176;16.338;2023-02-15T05:07:29;100703.53;;;1.95;80.92
66762;BME280;53672;48.176;16.338;2023-02-15T05:12:29;100697.22;;;1.96;81.53
66762;BME280;53672;48.176;16.338;2023-02-15T05:17:30;100697.88;;;1.98;81.39
66762;BME280;53672;48.176;16.338;2023-02-15T05:22:32;100698.81;;;1.91;81.53
66762;BME280;53672;48.176;16.338;2023-02-15T05:27:32;100699.63;;;1.91;81.76
66762;BME280;53672;48.176;16.338;2023-02-15T05:32:33;100702.47;;;1.90;81.51
66762;BME280;53672;48.176;16.338;2023-02-15T05:37:35;100704.66;;;1.86;81.55
66762;BME280;53672;48.176;16.338;2023-02-15T05:42:35;100703.00;;;1.85;81.08
66762;BME280;53672;48.176;16.338;2023-02-15T05:47:36;100708.78;;;1.89;81.45
66762;BME280;53672;48.176;16.338;2023-02-15T05:52:38;100703.66;;;1.87;81.71
66762;BME280;53672;48.176;16.338;2023-02-15T05:57:38;100705.28;;;1.88;80.79
66762;BME280;53672;48.176;16.338;2023-02-15T06:02:39;100717.41;;;1.76;81.45
66762;BME280;53672;48.176;16.338;2023-02-15T06:07:42;100714.47;;;1.86;81.10
66762;BME280;53672;48.176;16.338;2023-02-15T06:12:43;100726.22;;;1.77;81.32
66762;BME280;53672;48.176;16.338;2023-02-15T06:17:44;100722.28;;;1.73;81.74
66762;BME280;53672;48.176;16.338;2023-02-15T06:22:46;100734.56;;;1.74;82.53
66762;BME280;53672;48.176;16.338;2023-02-15T06:27:46;100737.69;;;1.77;82.47
66762;BME280;53672;48.176;16.338;2023-02-15T06:32:47;100728.78;;;1.85;82.87
66762;BME280;53672;48.176;16.338;2023-02-15T06:37:49;100730.25;;;1.87;83.11
66762;BME280;53672;48.176;16.338;2023-02-15T06:42:50;100735.91;;;1.99;82.66
66762;BME280;53672;48.176;16.338;2023-02-15T06:47:50;100730.66;;;2.05;82.52
66762;BME280;53672;48.176;16.338;2023-02-15T06:52:56;100725.00;;;2.09;82.06
66762;BME280;53672;48.176;16.338;2023-02-15T06:57:57;100715.16;;;2.09;82.22
66762;BME280;53672;48.176;16.338;2023-02-15T07:02:58;100716.72;;;2.18;82.22
66762;BME280;53672;48.176;16.338;2023-02-15T07:08:00;100716.94;;;2.38;82.29
66762;BME280;53672;48.176;16.338;2023-02-15T07:13:01;100711.91;;;2.43;81.66
66762;BME280;53672;48.176;16.338;2023-02-15T07:18:01;100700.34;;;2.36;81.03
66762;BME280;53672;48.176;16.338;2023-02-15T07:23:04;100710.47;;;2.47;80.47
66762;BME280;53672;48.176;16.338;2023-02-15T07:28:05;100711.72;;;2.30;81.01
66762;BME280;53672;48.176;16.338;2023-02-15T07:33:05;100708.56;;;2.41;81.16
66762;BME280;53672;48.176;16.338;2023-02-15T07:38:07;100708.28;;;2.15;82.07
66762;BME280;53672;48.176;16.338;2023-02-15T07:43:08;100716.25;;;2.29;82.13
66762;BME280;53672;48.176;16.338;2023-02-15T07:48:09;100714.28;;;2.38;81.47
66762;BME280;53672;48.176;16.338;2023-02-15T07:53:10;100712.94;;;2.27;81.69
66762;BME280;53672;48.176;16.338;2023-02-15T07:58:11;100719.22;;;2.41;81.75
66762;BME280;53672;48.176;16.338;2023-02-15T08:03:11;100717.34;;;2.56;80.57
66762;BME280;53672;48.176;16.338;2023-02-15T08:08:13;100722.81;;;2.33;81.25
66762;BME280;53672;48.176;16.338;2023-02-15T08:13:14;100721.38;;;2.52;80.45
66762;BME280;53672;48.176;16.338;2023-02-15T08:18:14;100716.41;;;2.64;80.77
66762;BME280;53672;48.176;16.338;2023-02-15T08:23:16;100720.00;;;2.77;80.18
66762;BME280;53672;48.176;16.338;2023-02-15T08:28:17;100717.53;;;2.76;80.56
66762;BME280;53672;48.176;16.338;2023-02-15T08:33:17;100715.53;;;3.05;79.15
66762;BME280;53672;48.176;16.338;2023-02-15T08:38:19;100715.81;;;2.89;78.94
66762;BME280;53672;48.176;16.338;2023-02-15T08:43:20;100715.75;;;3.04;78.47
66762;BME280;53672;48.176;16.338;2023-02-15T08:48:20;100709.97;;;3.00;77.88
66762;BME280;53672;48.176;16.338;2023-02-15T08:53:22;100697.84;;;2.98;78.98
66762;BME280;53672;48.176;16.338;2023-02-15T08:58:22;100708.03;;;3.16;77.94
66762;BME280;53672;48.176;16.338;2023-02-15T09:03:23;100701.88;;;3.15;78.43
66762;BME280;53672;48.176;16.338;2023-02-15T09:08:25;100703.91;;;3.13;78.01
66762;BME280;53672;48.176;16.338;2023-02-15T09:13:26;100709.53;;;2.97;77.90
66762;BME280;53672;48.176;16.338;2023-02-15T09:18:26;100702.75;;;2.94;78.11
66762;BME280;53672;48.176;16.338;2023-02-15T09:23:29;100705.75;;;3.13;77.79
66762;BME280;53672;48.176;16.338;2023-02-15T09:28:29;100702.22;;;3.05;77.82
66762;BME280;53672;48.176;16.338;2023-02-15T09:33:30;100691.38;;;3.07;77.36
66762;BME280;53672;48.176;16.338;2023-02-15T09:38:32;100694.75;;;3.22;76.83
66762;BME280;53672;48.176;16.338;2023-02-15T09:43:39;100697.59;;;3.14;77.18
66762;BME280;53672;48.176;16.338;2023-02-15T09:48:44;100694.19;;;3.27;77.34
66762;BME280;53672;48.176;16.338;2023-02-15T09:53:59;100691.38;;;3.35;76.19
66762;BME280;53672;48.176;16.338;2023-02-15T09:59:10;100688.53;;;3.43;76.42
66762;BME280;53672;48.176;16.338;2023-02-15T10:04:25;100683.53;;;3.27;76.34
66762;BME280;53672;48.176;16.338;2023-02-15T10:09:42;100677.25;;;3.06;76.96
66762;BME280;53672;48.176;16.338;2023-02-15T10:15:00;100682.34;;;3.36;76.21
66762;BME280;53672;48.176;16.338;2023-02-15T10:20:17;100690.94;;;3.66;74.83
66762;BME280;53672;48.176;16.338;2023-02-15T10:25:31;100681.41;;;3.91;72.86
66762;BME280;53672;48.176;16.338;2023-02-15T10:30:39;100676.22;;;4.30;72.35
66762;BME280;53672;48.176;16.338;2023-02-15T10:35:49;100671.47;;;4.19;72.14
66762;BME280;53672;48.176;16.338;2023-02-15T10:41:06;100670.72;;;4.45;71.91
66762;BME280;53672;48.176;16.338;2023-02-15T10:46:20;100660.00;;;4.32;72.31
66762;BME280;53672;48.176;16.338;2023-02-15T10:51:31;100653.47;;;4.34;72.69
66762;BME280;53672;48.176;16.338;2023-02-15T10:56:38;100643.53;;;4.15;72.05
66762;BME280;53672;48.176;16.338;2023-02-15T11:01:52;100649.00;;;3.94;72.96
66762;BME280;53672;48.176;16.338;2023-02-15T11:06:57;100628.34;;;4.09;73.51
66762;BME280;53672;48.176;16.338;2023-02-15T11:12:01;100627.38;;;4.30;72.53
66762;BME280;53672;48.176;16.338;2023-02-15T11:17:04;100624.31;;;4.85;70.64
66762;BME280;53672;48.176;16.338;2023-02-15T11:22:10;100616.94;;;4.61;70.80
66762;BME280;53672;48.176;16.338;2023-02-15T11:27:18;100618.78;;;4.80;70.14
66762;BME280;53672;48.176;16.338;2023-02-15T11:32:21;100612.59;;;4.60;71.58
66762;BME280;53672;48.176;16.338;2023-02-15T11:37:28;100618.38;;;4.64;72.25
66762;BME280;53672;48.176;16.338;2023-02-15T11:42:31;100607.47;;;4.78;70.87
66762;BME280;53672;48.176;16.338;2023-02-15T11:47:33;100600.09;;;4.60;71.47
66762;BME280;53672;48.176;16.338;2023-02-15T11:52:33;100600.69;;;4.63;71.98
66762;BME280;53672;48.176;16.338;2023-02-15T11:57:38;100598.63;;;4.91;70.96
66762;BME280;53672;48.176;16.338;2023-02-15T12:02:44;100600.69;;;4.56;72.42
66762;BME280;53672;48.176;16.338;2023-02-15T12:07:49;100595.34;;;4.43;73.59
66762;BME280;53672;48.176;16.338;2023-02-15T12:13:09;100592.22;;;5.11;71.34
66762;BME280;53672;48.176;16.338;2023-02-15T12:18:19;100595.13;;;4.97;70.35
66762;BME280;53672;48.176;16.338;2023-02-15T12:23:20;100581.34;;;5.13;69.75
66762;BME280;53672;48.176;16.338;2023-02-15T12:28:26;100581.78;;;4.90;71.28
66762;BME280;53672;48.176;16.338;2023-02-15T12:33:29;100577.63;;;5.07;69.46
66762;BME280;53672;48.176;16.338;2023-02-15T12:38:31;100571.19;;;5.35;69.52
66762;BME280;53672;48.176;16.338;2023-02-15T12:43:35;100570.75;;;5.38;69.66
66762;BME280;53672;48.176;16.338;2023-02-15T12:48:36;100560.03;;;5.51;68.10
66762;BME280;53672;48.176;16.338;2023-02-15T12:53:36;100549.75;;;6.24;66.29
66762;BME280;53672;48.176;16.338;2023-02-15T12:58:39;100558.22;;;5.89;66.81
66762;BME280;53672;48.176;16.338;2023-02-15T13:03:54;100544.53;;;5.66;67.34
66762;BME280;53672;48.176;16.338;2023-02-15T13:08:59;100539.47;;;5.89;66.89
66762;BME280;53672;48.176;16.338;2023-02-15T13:14:17;100534.84;;;5.72;67.02
66762;BME280;53672;48.176;16.338;2023-02-15T13:19:22;100528.78;;;5.83;66.54
66762;BME280;53672;48.176;16.338;2023-02-15T13:24:28;100513.41;;;5.78;67.19
66762;BME280;53672;48.176;16.338;2023-02-15T13:29:34;100518.41;;;6.06;66.17
66762;BME280;53672;48.176;16.338;2023-02-15T13:34:38;100521.47;;;5.65;67.88
66762;BME280;53672;48.176;16.338;2023-02-15T13:39:42;100517.06;;;5.90;66.68
66762;BME280;53672;48.176;16.338;2023-02-15T13:45:16;100513.72;;;5.57;68.44
66762;BME280;53672;48.176;16.338;2023-02-15T13:50:35;100509.16;;;5.64;67.84
66762;BME280;53672;48.176;16.338;2023-02-15T13:55:44;100510.78;;;5.65;67.72
66762;BME280;53672;48.176;16.338;2023-02-15T14:00:56;100507.34;;;5.58;67.81
66762;BME280;53672;48.176;16.338;2023-02-15T14:06:12;100495.94;;;5.69;68.05
66762;BME280;53672;48.176;16.338;2023-02-15T14:11:19;100495.50;;;5.41;68.86
66762;BME280;53672;48.176;16.338;2023-02-15T14:16:30;100491.16;;;5.46;68.82
66762;BME280;53672;48.176;16.338;2023-02-15T14:21:38;100497.16;;;5.35;69.29
66762;BME280;53672;48.176;16.338;2023-02-15T14:26:47;100498.50;;;5.13;70.36
66762;BME280;53672;48.176;16.338;2023-02-15T14:31:54;100488.00;;;5.11;70.92
66762;BME280;53672;48.176;16.338;2023-02-15T14:36:56;100480.28;;;4.90;71.92
66762;BME280;53672;48.176;16.338;2023-02-15T14:42:00;100482.50;;;4.93;71.72
66762;BME280;53672;48.176;16.338;2023-02-15T14:47:09;100480.72;;;4.81;72.75
66762;BME280;53672;48.176;16.338;2023-02-15T14:52:11;100469.84;;;4.76;72.62
66762;BME280;53672;48.176;16.338;2023-02-15T14:57:24;100474.56;;;4.74;73.30
66762;BME280;53672;48.176;16.338;2023-02-15T15:02:29;100462.06;;;4.68;73.42
66762;BME280;53672;48.176;16.338;2023-02-15T15:07:37;100454.91;;;4.55;74.43
66762;BME280;53672;48.176;16.338;2023-02-15T15:12:40;100463.16;;;4.34;75.93
66762;BME280;53672;48.176;16.338;2023-02-15T15:17:58;100458.00;;;4.26;76.01
66762;BME280;53672;48.176;16.338;2023-02-15T15:23:38;100458.63;;;4.08;77.11
66762;BME280;53672;48.176;16.338;2023-02-15T15:29:00;100451.47;;;3.95;78.42
66762;BME280;53672;48.176;16.338;2023-02-15T15:34:46;100446.13;;;3.95;78.43
66762;BME280;53672;48.176;16.338;2023-02-15T15:45:56;100447.13;;;3.68;80.20
66762;BME280;53672;48.176;16.338;2023-02-15T15:51:05;100447.72;;;3.57;81.20
66762;BME280;53672;48.176;16.338;2023-02-15T15:56:09;100444.84;;;3.45;81.67
66762;BME280;53672;48.176;16.338;2023-02-15T16:01:12;100443.59;;;3.35;82.31
66762;BME280;53672;48.176;16.338;2023-02-15T16:06:26;100441.09;;;3.27;82.67
66762;BME280;53672;48.176;16.338;2023-02-15T16:11:29;100441.91;;;3.21;83.60
66762;BME280;53672;48.176;16.338;2023-02-15T16:16:30;100437.16;;;3.10;83.78
66762;BME280;53672;48.176;16.338;2023-02-15T16:21:34;100432.41;;;3.05;84.39
66762;BME280;53672;48.176;16.338;2023-02-15T16:26:47;100430.53;;;2.99;85.09
66762;BME280;53672;48.176;16.338;2023-02-15T16:32:00;100437.25;;;2.88;85.65
66762;BME280;53672;48.176;16.338;2023-02-15T16:37:19;100440.88;;;2.74;86.64
66762;BME280;53672;48.176;16.338;2023-02-15T16:42:20;100441.47;;;2.63;87.43
66762;BME280;53672;48.176;16.338;2023-02-15T16:47:25;100449.59;;;2.55;88.50
66762;BME280;53672;48.176;16.338;2023-02-15T16:52:31;100444.19;;;2.42;89.13
66762;BME280;53672;48.176;16.338;2023-02-15T16:57:33;100443.75;;;2.38;89.70
66762;BME280;53672;48.176;16.338;2023-02-15T17:02:35;100439.63;;;2.29;90.58
66762;BME280;53672;48.176;16.338;2023-02-15T17:07:41;100429.97;;;2.28;91.02
66762;BME280;53672;48.176;16.338;2023-02-15T17:12:47;100430.56;;;2.24;90.97
66762;BME280;53672;48.176;16.338;2023-02-15T17:17:52;100435.44;;;2.20;91.54
66762;BME280;53672;48.176;16.338;2023-02-15T17:22:57;100429.25;;;2.13;92.33
66762;BME280;53672;48.176;16.338;2023-02-15T17:27:58;100431.19;;;1.98;92.64
66762;BME280;53672;48.176;16.338;2023-02-15T17:33:01;100439.91;;;1.92;93.70
66762;BME280;53672;48.176;16.338;2023-02-15T17:38:17;100443.75;;;1.83;94.45
66762;BME280;53672;48.176;16.338;2023-02-15T17:43:18;100443.75;;;1.83;94.54
66762;BME280;53672;48.176;16.338;2023-02-15T17:48:21;100450.44;;;1.79;94.65
66762;BME280;53672;48.176;16.338;2023-02-15T17:53:25;100441.53;;;1.65;95.50
66762;BME280;53672;48.176;16.338;2023-02-15T17:58:26;100444.50;;;1.56;96.04
66762;BME280;53672;48.176;16.338;2023-02-15T18:03:33;100446.47;;;1.47;96.75
66762;BME280;53672;48.176;16.338;2023-02-15T18:08:42;100448.03;;;1.41;97.26
66762;BME280;53672;48.176;16.338;2023-02-15T18:13:43;100448.25;;;1.40;97.61
66762;BME280;53672;48.176;16.338;2023-02-15T18:18:45;100448.19;;;1.33;98.01
66762;BME280;53672;48.176;16.338;2023-02-15T18:23:51;100448.91;;;1.27;98.38
66762;BME280;53672;48.176;16.338;2023-02-15T18:28:52;100453.97;;;1.22;98.72
66762;BME280;53672;48.176;16.338;2023-02-15T18:33:56;100458.56;;;1.14;99.21
66762;BME280;53672;48.176;16.338;2023-02-15T18:39:05;100444.50;;;0.98;99.56
66762;BME280;53672;48.176;16.338;2023-02-15T18:44:09;100437.63;;;0.89;100.00
66762;BME280;53672;48.176;16.338;2023-02-15T18:49:11;100442.88;;;0.83;100.00
66762;BME280;53672;48.176;16.338;2023-02-15T18:54:18;100438.31;;;0.77;100.00
66762;BME280;53672;48.176;16.338;2023-02-15T18:59:20;100437.31;;;0.78;100.00
66762;BME280;53672;48.176;16.338;2023-02-15T19:04:21;100443.44;;;0.78;100.00
66762;BME280;53672;48.176;16.338;2023-02-15T19:09:27;100444.34;;;0.85;100.00
66762;BME280;53672;48.176;16.338;2023-02-15T19:14:30;100444.06;;;0.80;100.00
66762;BME280;53672;48.176;16.338;2023-02-15T19:19:32;100438.31;;;0.77;100.00
66762;BME280;53672;48.176;16.338;2023-02-15T19:24:39;100441.88;;;0.69;100.00
66762;BME280;53672;48.176;16.338;2023-02-15T19:29:42;100448.28;;;0.60;100.00
66762;BME280;53672;48.176;16.338;2023-02-15T19:34:43;100446.47;;;0.46;100.00
66762;BME280;53672;48.176;16.338;2023-02-15T19:39:46;100444.56;;;0.40;100.00
66762;BME280;53672;48.176;16.338;2023-02-15T19:44:48;100448.66;;;0.42;100.00
66762;BME280;53672;48.176;16.338;2023-02-15T19:49:49;100447.00;;;0.41;100.00
66762;BME280;53672;48.176;16.338;2023-02-15T19:54:53;100445.84;;;0.44;100.00
66762;BME280;53672;48.176;16.338;2023-02-15T19:59:54;100441.69;;;0.41;100.00
66762;BME280;53672;48.176;16.338;2023-02-15T20:04:56;100439.97;;;0.34;100.00
66762;BME280;53672;48.176;16.338;2023-02-15T20:10:08;100445.00;;;0.29;100.00
66762;BME280;53672;48.176;16.338;2023-02-15T20:15:18;100439.59;;;0.22;100.00
66762;BME280;53672;48.176;16.338;2023-02-15T20:20:21;100442.25;;;0.22;100.00
66762;BME280;53672;48.176;16.338;2023-02-15T20:25:27;100440.69;;;0.28;100.00
66762;BME280;53672;48.176;16.338;2023-02-15T20:30:31;100433.66;;;0.35;100.00
66762;BME280;53672;48.176;16.338;2023-02-15T20:35:32;100439.63;;;0.37;100.00
66762;BME280;53672;48.176;16.338;2023-02-15T20:40:35;100433.47;;;0.36;100.00
66762;BME280;53672;48.176;16.338;2023-02-15T20:45:37;100426.44;;;0.29;100.00
66762;BME280;53672;48.176;16.338;2023-02-15T20:50:39;100407.84;;;0.14;100.00
66762;BME280;53672;48.176;16.338;2023-02-15T20:55:43;100414.78;;;0.00;100.00
66762;BME280;53672;48.176;16.338;2023-02-15T21:00:45;100422.38;;;-0.11;100.00
66762;BME280;53672;48.176;16.338;2023-02-15T21:05:46;100422.44;;;-0.19;100.00
66762;BME280;53672;48.176;16.338;2023-02-15T21:10:50;100411.44;;;-0.31;100.00
66762;BME280;53672;48.176;16.338;2023-02-15T21:15:54;100405.22;;;-0.38;100.00
66762;BME280;53672;48.176;16.338;2023-02-15T21:20:58;100411.56;;;-0.47;100.00
66762;BME280;53672;48.176;16.338;2023-02-15T21:26:01;100413.47;;;-0.56;100.00
66762;BME280;53672;48.176;16.338;2023-02-15T21:31:04;100411.69;;;-0.63;100.00
66762;BME280;53672;48.176;16.338;2023-02-15T21:36:13;100395.03;;;-0.72;100.00
66762;BME280;53672;48.176;16.338;2023-02-15T21:41:17;100402.59;;;-0.83;100.00
66762;BME280;53672;48.176;16.338;2023-02-15T21:46:19;100400.69;;;-0.97;100.00
66762;BME280;53672;48.176;16.338;2023-02-15T21:51:19;100404.88;;;-1.03;100.00
66762;BME280;53672;48.176;16.338;2023-02-15T21:56:21;100404.91;;;-1.11;100.00
66762;BME280;53672;48.176;16.338;2023-02-15T22:01:24;100405.75;;;-1.19;100.00
66762;BME280;53672;48.176;16.338;2023-02-15T22:06:25;100405.47;;;-1.24;100.00
66762;BME280;53672;48.176;16.338;2023-02-15T22:11:28;100404.81;;;-1.26;100.00
66762;BME280;53672;48.176;16.338;2023-02-15T22:16:29;100407.78;;;-1.29;100.00
66762;BME280;53672;48.176;16.338;2023-02-15T22:21:29;100407.31;;;-1.32;100.00
66762;BME280;53672;48.176;16.338;2023-02-15T22:26:31;100396.44;;;-1.37;100.00
66762;BME280;53672;48.176;16.338;2023-02-15T22:31:32;100405.88;;;-1.43;100.00
66762;BME280;53672;48.176;16.338;2023-02-15T22:36:32;100403.75;;;-1.47;100.00
66762;BME280;53672;48.176;16.338;2023-02-15T22:41:34;100399.31;;;-1.55;100.00
66762;BME280;53672;48.176;16.338;2023-02-15T22:46:35;100408.75;;;-1.61;100.00
66762;BME280;53672;48.176;16.338;2023-02-15T22:51:35;100407.94;;;-1.61;100.00
66762;BME280;53672;48.176;16.338;2023-02-15T22:56:39;100406.13;;;-1.69;100.00
66762;BME280;53672;48.176;16.338;2023-02-15T23:01:41;100404.97;;;-1.74;100.00
66762;BME280;53672;48.176;16.338;2023-02-15T23:06:41;100397.09;;;-1.82;100.00
66762;BME280;53672;48.176;16.338;2023-02-15T23:11:44;100394.31;;;-1.89;100.00
66762;BME280;53672;48.176;16.338;2023-02-15T23:16:45;100401.56;;;-1.91;100.00
66762;BME280;53672;48.176;16.338;2023-02-15T23:21:45;100395.44;;;-1.91;100.00
66762;BME280;53672;48.176;16.338;2023-02-15T23:26:48;100397.59;;;-1.87;100.00
66762;BME280;53672;48.176;16.338;2023-02-15T23:31:50;100397.25;;;-1.84;100.00
66762;BME280;53672;48.176;16.338;2023-02-15T23:36:51;100391.81;;;-1.82;100.00
66762;BME280;53672;48.176;16.338;2023-02-15T23:41:53;100390.16;;;-1.75;100.00
66762;BME280;53672;48.176;16.338;2023-02-15T23:46:54;100384.50;;;-1.72;100.00
66762;BME280;53672;48.176;16.338;2023-02-15T23:51:55;100376.25;;;-1.69;100.00
66762;BME280;53672;48.176;16.338;2023-02-15T23:56:59;100383.81;;;-1.66;100.00
